createdAt,value
2023-01-03T00:01:20.993Z,81.79
2023-01-03T00:03:47.694Z,81.64
2023-01-03T00:06:18.311Z,81.65
2023-01-03T00:08:45.298Z,81.80
2023-01-03T00:11:14.511Z,81.90
2023-01-03T00:13:42.340Z,82.04
2023-01-03T00:16:20.216Z,82.01
2023-01-03T00:18:47.982Z,82.43
2023-01-03T00:21:14.568Z,82.37
2023-01-03T00:23:41.186Z,82.51
2023-01-03T00:26:12.267Z,82.49
2023-01-03T00:28:39.114Z,82.66
2023-01-03T00:31:10.750Z,82.68
2023-01-03T00:33:39.487Z,82.96
2023-01-03T00:36:08.416Z,83.37
2023-01-03T00:38:35.874Z,83.03
2023-01-03T00:41:11.124Z,83.36
2023-01-03T00:43:38.891Z,83.35
2023-01-03T00:46:06.680Z,83.22
2023-01-03T00:48:33.863Z,82.91
2023-01-03T00:51:15.015Z,83.01
2023-01-03T00:53:42.528Z,82.80
2023-01-03T00:56:12.233Z,82.62
2023-01-03T00:58:39.127Z,82.62
2023-01-03T01:01:12.256Z,82.83
2023-01-03T01:03:42.257Z,82.86
2023-01-03T01:06:25.176Z,83.04
2023-01-03T01:08:54.712Z,83.20
2023-01-03T01:11:21.993Z,83.08
2023-01-03T01:13:49.588Z,83.43
2023-01-03T01:16:19.298Z,83.68
2023-01-03T01:18:47.826Z,83.47
2023-01-03T01:21:20.967Z,83.55
2023-01-03T01:23:47.924Z,83.54
2023-01-03T01:26:19.211Z,83.38
2023-01-03T01:28:46.823Z,83.36
2023-01-03T01:31:16.983Z,83.60
2023-01-03T01:33:44.512Z,83.79
2023-01-03T01:36:17.247Z,83.35
2023-01-03T01:38:45.473Z,83.87
2023-01-03T01:41:36.791Z,83.80
2023-01-03T01:44:22.468Z,83.72
2023-01-03T01:46:49.748Z,83.96
2023-01-03T01:49:21.749Z,83.90
2023-01-03T01:51:48.464Z,84.00
2023-01-03T01:54:15.788Z,84.22
2023-01-03T01:56:51.418Z,84.64
2023-01-03T01:59:18.045Z,84.61
2023-01-03T02:01:47.654Z,84.79
2023-01-03T02:04:19.320Z,84.91
2023-01-03T02:06:45.984Z,84.88
2023-01-03T02:09:12.879Z,85.00
2023-01-03T02:12:17.483Z,84.56
2023-01-03T02:15:05.129Z,84.40
2023-01-03T02:17:40.912Z,84.59
2023-01-03T02:20:19.451Z,84.73
2023-01-03T02:22:58.380Z,84.88
2023-01-03T02:25:45.686Z,84.63
2023-01-03T02:28:35.156Z,84.58
2023-01-03T02:31:12.741Z,84.60
2023-01-03T02:33:53.786Z,84.11
2023-01-03T02:36:47.684Z,84.04
2023-01-03T02:39:23.626Z,83.99
2023-01-03T02:42:17.181Z,83.73
2023-01-03T02:45:36.022Z,83.53
2023-01-03T02:48:17.583Z,83.12
2023-01-03T02:50:49.925Z,83.47
2023-01-03T02:53:25.153Z,83.88
2023-01-03T02:55:53.392Z,83.86
2023-01-03T02:58:26.886Z,84.22
2023-01-03T03:00:56.111Z,84.77
2023-01-03T03:03:28.855Z,84.85
2023-01-03T03:06:07.271Z,84.88
2023-01-03T03:08:34.172Z,85.35
2023-01-03T03:11:19.396Z,85.61
2023-01-03T03:13:51.409Z,85.81
2023-01-03T03:16:41.391Z,85.28
2023-01-03T03:19:38.566Z,85.08
2023-01-03T03:22:29.825Z,85.08
2023-01-03T03:24:59.783Z,85.05
2023-01-03T03:27:48.327Z,84.95
2023-01-03T03:30:18.061Z,85.11
2023-01-03T03:32:48.655Z,85.07
2023-01-03T03:35:19.410Z,85.26
2023-01-03T03:37:48.311Z,85.27
2023-01-03T03:40:33.722Z,85.40
2023-01-03T03:43:34.923Z,85.55
2023-01-03T03:46:10.358Z,86.35
2023-01-03T03:49:07.307Z,86.46
2023-01-03T03:51:36.879Z,86.99
2023-01-03T03:54:10.827Z,86.85
2023-01-03T03:56:40.805Z,87.18
2023-01-03T03:59:09.508Z,87.39
2023-01-03T04:01:39.959Z,87.21
2023-01-03T04:04:12.489Z,87.36
2023-01-03T04:06:44.311Z,87.34
2023-01-03T04:09:12.155Z,86.83
2023-01-03T04:11:38.835Z,86.80
2023-01-03T04:14:05.415Z,86.59
2023-01-03T04:16:32.083Z,87.00
2023-01-03T04:18:58.827Z,86.58
2023-01-03T04:21:25.868Z,86.97
2023-01-03T04:23:52.454Z,86.95
2023-01-03T04:26:19.063Z,87.11
2023-01-03T04:28:45.627Z,87.09
2023-01-03T04:31:12.376Z,86.96
2023-01-03T04:33:39.050Z,87.46
2023-01-03T04:36:05.790Z,87.37
2023-01-03T04:38:32.486Z,87.28
2023-01-03T04:41:06.989Z,87.33
2023-01-03T04:43:52.510Z,87.48
2023-01-03T04:46:19.709Z,87.87
2023-01-03T04:48:46.353Z,87.62
2023-01-03T04:51:14.512Z,87.65
2023-01-03T04:53:41.074Z,87.98
2023-01-03T04:56:08.062Z,87.42
2023-01-03T04:58:35.047Z,87.46
2023-01-03T05:01:04.441Z,87.29
2023-01-03T05:03:31.636Z,87.03
2023-01-03T05:06:03.072Z,86.92
2023-01-03T05:08:29.925Z,87.15
2023-01-03T05:10:56.988Z,86.75
2023-01-03T05:13:23.588Z,86.76
2023-01-03T05:15:50.230Z,86.46
2023-01-03T05:18:17.062Z,86.46
2023-01-03T05:21:02.856Z,86.36
2023-01-03T05:23:47.841Z,86.03
2023-01-03T05:26:16.616Z,86.53
2023-01-03T05:28:46.496Z,86.07
2023-01-03T05:31:13.309Z,85.96
2023-01-03T05:33:41.315Z,86.15
2023-01-03T05:36:08.954Z,86.48
2023-01-03T05:38:36.204Z,86.23
2023-01-03T05:41:02.822Z,86.52
2023-01-03T05:43:29.410Z,86.55
2023-01-03T05:45:56.211Z,86.61
2023-01-03T05:48:23.054Z,86.27
2023-01-03T05:50:52.562Z,86.63
2023-01-03T05:53:19.215Z,86.45
2023-01-03T05:55:45.861Z,86.43
2023-01-03T05:58:12.988Z,87.62
2023-01-03T06:00:40.202Z,88.19
2023-01-03T06:03:07.679Z,87.07
2023-01-03T06:05:34.393Z,84.81
2023-01-03T06:08:02.116Z,84.32
2023-01-03T06:10:29.066Z,83.27
2023-01-03T06:12:55.855Z,81.58
2023-01-03T06:15:22.488Z,81.02
2023-01-03T06:17:57.507Z,80.09
2023-01-03T06:20:26.560Z,78.46
2023-01-03T06:22:54.706Z,79.28
2023-01-03T06:25:22.096Z,78.80
2023-01-03T06:27:48.788Z,79.34
2023-01-03T06:30:15.925Z,77.74
2023-01-03T06:32:43.361Z,77.37
2023-01-03T06:35:10.349Z,76.77
2023-01-03T06:37:37.027Z,75.87
2023-01-03T06:40:04.262Z,75.12
2023-01-03T06:42:45.258Z,75.17
2023-01-03T06:45:32.693Z,74.40
2023-01-03T06:48:23.663Z,75.14
2023-01-03T06:51:09.566Z,73.54
2023-01-03T06:53:39.304Z,73.28
2023-01-03T06:56:06.445Z,74.45
2023-01-03T06:58:33.299Z,74.88
2023-01-03T07:01:04.786Z,74.00
2023-01-03T07:03:32.722Z,75.07
2023-01-03T07:05:59.371Z,75.55
2023-01-03T07:08:26.003Z,76.78
2023-01-03T07:10:52.771Z,77.92
2023-01-03T07:13:38.211Z,78.59
2023-01-03T07:16:05.051Z,78.64
2023-01-03T07:18:32.060Z,79.33
2023-01-03T07:20:58.708Z,80.03
2023-01-03T07:23:25.282Z,80.49
2023-01-03T07:25:55.535Z,80.97
2023-01-03T07:28:22.162Z,81.32
2023-01-03T07:30:48.820Z,81.66
2023-01-03T07:33:16.940Z,81.96
2023-01-03T07:35:43.986Z,82.38
2023-01-03T07:38:12.656Z,82.41
2023-01-03T07:40:39.746Z,82.39
2023-01-03T07:43:25.309Z,82.23
2023-01-03T07:45:51.997Z,82.35
2023-01-03T07:48:18.674Z,82.55
2023-01-03T07:50:45.436Z,82.32
2023-01-03T07:53:17.126Z,82.89
2023-01-03T07:55:48.032Z,82.93
2023-01-03T07:58:14.738Z,82.85
2023-01-03T08:00:42.198Z,82.88
2023-01-03T08:09:12.080Z,83.19
2023-01-03T08:11:58.135Z,82.86
2023-01-03T08:14:26.487Z,83.24
2023-01-03T08:16:54.461Z,83.45
2023-01-03T08:19:21.027Z,83.42
2023-01-03T08:21:47.648Z,83.43
2023-01-03T08:24:14.261Z,83.45
2023-01-03T08:26:40.906Z,83.22
2023-01-03T08:29:07.834Z,83.60
2023-01-03T08:31:38.065Z,83.69
2023-01-03T08:34:12.040Z,83.98
2023-01-03T08:36:49.512Z,83.54
2023-01-03T08:39:19.888Z,83.71
2023-01-03T08:41:52.971Z,83.91
2023-01-03T08:44:19.586Z,83.36
2023-01-03T08:46:51.387Z,83.54
2023-01-03T08:49:19.289Z,82.66
2023-01-03T08:51:46.131Z,82.12
2023-01-03T08:54:12.898Z,82.66
2023-01-03T08:56:40.207Z,81.99
2023-01-03T08:59:07.242Z,81.81
2023-01-03T09:01:34.211Z,81.69
2023-01-03T09:04:01.027Z,81.92
2023-01-03T09:06:27.703Z,81.85
2023-01-03T09:08:54.277Z,81.36
2023-01-03T09:11:20.833Z,81.01
2023-01-03T09:13:47.641Z,81.16
2023-01-03T09:16:16.560Z,81.20
2023-01-03T09:18:43.726Z,81.17
2023-01-03T09:21:10.493Z,81.62
2023-01-03T09:23:37.676Z,81.36
2023-01-03T09:26:05.485Z,81.69
2023-01-03T09:28:32.329Z,81.49
2023-01-03T09:30:59.007Z,81.28
2023-01-03T09:33:25.907Z,81.77
2023-01-03T09:35:54.574Z,81.69
2023-01-03T09:38:22.657Z,81.49
2023-01-03T09:41:07.957Z,81.20
2023-01-03T09:44:01.244Z,81.23
2023-01-03T09:46:29.524Z,81.06
2023-01-03T09:48:56.999Z,81.58
2023-01-03T09:51:52.955Z,81.85
2023-01-03T09:54:44.026Z,81.41
2023-01-03T09:57:44.381Z,81.67
2023-01-03T10:00:35.601Z,81.76
2023-01-03T10:03:51.150Z,81.79
2023-01-03T10:06:43.678Z,81.97
2023-01-03T10:09:47.720Z,82.03
2023-01-03T10:12:20.150Z,81.69
2023-01-03T10:14:52.938Z,81.23
2023-01-03T10:17:27.636Z,80.63
2023-01-03T10:20:00.343Z,80.87
2023-01-03T10:22:28.813Z,80.83
2023-01-03T10:25:04.178Z,80.05
2023-01-03T10:27:43.780Z,79.72
2023-01-03T10:30:16.416Z,79.44
2023-01-03T10:32:56.713Z,79.45
2023-01-03T10:35:34.774Z,78.73
2023-01-03T10:38:01.529Z,78.50
2023-01-03T10:40:58.502Z,78.10
2023-01-03T10:43:29.769Z,77.71
2023-01-03T10:45:57.871Z,78.19
2023-01-03T10:48:52.667Z,77.96
2023-01-03T10:51:28.955Z,77.53
2023-01-03T10:54:00.144Z,77.17
2023-01-03T10:56:30.175Z,76.91
2023-01-03T10:59:12.071Z,75.69
2023-01-03T11:01:39.654Z,76.68
2023-01-03T11:04:15.838Z,76.38
2023-01-03T11:06:58.700Z,76.54
2023-01-03T11:09:31.658Z,76.13
2023-01-03T11:12:23.249Z,76.35
2023-01-03T11:14:51.795Z,76.01
2023-01-03T11:17:21.471Z,76.55
2023-01-03T11:19:49.263Z,76.28
2023-01-03T11:22:45.862Z,75.70
2023-01-03T11:25:38.851Z,76.39
2023-01-03T11:28:15.374Z,75.57
2023-01-03T11:30:59.333Z,75.72
2023-01-03T11:34:08.208Z,75.73
2023-01-03T11:36:49.013Z,76.21
2023-01-03T11:39:53.262Z,76.36
2023-01-03T11:42:37.219Z,76.18
2023-01-03T11:45:35.047Z,76.53
2023-01-03T11:48:23.293Z,75.77
2023-01-03T11:51:18.875Z,75.36
2023-01-03T11:54:01.702Z,75.70
2023-01-03T11:56:28.799Z,75.64
2023-01-03T11:59:04.283Z,76.17
2023-01-03T12:01:51.146Z,74.47
2023-01-03T12:04:17.815Z,75.21
2023-01-03T12:07:46.976Z,74.42
2023-01-03T12:10:10.347Z,75.22
2023-01-03T12:13:23.851Z,74.54
2023-01-03T12:16:04.584Z,75.30
2023-01-03T12:18:55.717Z,75.20
2023-01-03T12:21:34.296Z,74.30
2023-01-03T12:24:15.904Z,73.55
2023-01-03T12:26:47.827Z,73.91
2023-01-03T12:29:28.886Z,74.28
2023-01-03T12:32:14.947Z,74.28
2023-01-03T12:35:03.174Z,74.42
2023-01-03T12:37:38.611Z,74.39
2023-01-03T12:40:23.020Z,74.15
2023-01-03T12:43:04.519Z,74.45
2023-01-03T12:45:56.488Z,74.22
2023-01-03T12:48:29.091Z,74.49
2023-01-03T12:50:56.170Z,73.96
2023-01-03T12:53:43.201Z,74.20
2023-01-03T12:56:28.981Z,74.01
2023-01-03T12:59:40.509Z,73.51
2023-01-03T13:02:18.362Z,72.65
2023-01-03T13:04:47.868Z,72.63
2023-01-03T13:07:29.040Z,73.36
2023-01-03T13:10:01.344Z,72.85
2023-01-03T13:12:32.467Z,73.30
2023-01-03T13:15:27.406Z,72.52
2023-01-03T13:18:21.145Z,71.82
2023-01-03T13:20:52.541Z,72.19
2023-01-03T13:23:31.035Z,73.16
2023-01-03T13:26:04.977Z,72.50
2023-01-03T13:28:35.281Z,72.32
2023-01-03T13:31:35.854Z,72.14
2023-01-03T13:34:32.124Z,72.03
2023-01-03T13:37:07.984Z,72.73
2023-01-03T13:39:38.740Z,73.00
2023-01-03T13:42:05.751Z,73.09
2023-01-03T13:44:32.381Z,72.95
2023-01-03T13:46:59.380Z,72.49
2023-01-03T13:49:28.925Z,73.08
2023-01-03T13:51:59.624Z,72.83
2023-01-03T13:54:35.175Z,72.60
2023-01-03T13:57:25.998Z,73.09
2023-01-03T13:59:53.395Z,73.78
2023-01-03T14:02:47.655Z,73.66
2023-01-03T14:05:39.040Z,73.84
2023-01-03T14:08:05.604Z,74.15
2023-01-03T14:10:38.125Z,73.67
2023-01-03T14:13:07.666Z,74.35
2023-01-03T14:15:34.610Z,74.11
2023-01-03T14:18:12.701Z,73.75
2023-01-03T14:20:43.666Z,73.72
2023-01-03T14:26:15.666Z,71.66
2023-01-03T14:28:49.297Z,72.30
2023-01-03T14:31:23.373Z,72.61
2023-01-03T14:33:53.679Z,72.00
2023-01-03T14:36:20.357Z,71.39
2023-01-03T14:39:07.173Z,71.42
2023-01-03T14:41:39.340Z,70.98
2023-01-03T14:44:16.663Z,70.57
2023-01-03T14:46:53.550Z,69.75
2023-01-03T14:49:43.804Z,69.68
2023-01-03T14:52:27.425Z,69.90
2023-01-03T14:55:01.640Z,69.81
2023-01-03T14:57:30.898Z,68.81
2023-01-03T15:00:01.716Z,68.30
2023-01-03T15:02:35.334Z,67.95
2023-01-03T15:05:02.951Z,68.17
2023-01-03T15:07:38.892Z,68.05
2023-01-03T15:10:37.339Z,68.04
2023-01-03T15:13:05.177Z,68.14
2023-01-03T15:15:39.319Z,67.85
2023-01-03T15:18:09.723Z,67.83
2023-01-03T15:20:43.791Z,68.34
2023-01-03T15:23:36.535Z,69.12
2023-01-03T15:26:04.456Z,69.12
2023-01-03T15:28:50.036Z,68.50
2023-01-03T15:31:46.348Z,69.20
2023-01-03T15:34:40.600Z,69.61
2023-01-03T15:37:17.086Z,69.72
2023-01-03T15:39:52.816Z,69.85
2023-01-03T15:42:58.686Z,70.35
2023-01-03T15:45:35.498Z,69.81
2023-01-03T15:48:04.932Z,70.41
2023-01-03T15:50:41.463Z,70.76
2023-01-03T15:53:19.581Z,70.89
2023-01-03T15:55:46.674Z,70.79
2023-01-03T15:58:13.233Z,70.83
2023-01-03T16:00:40.011Z,71.00
2023-01-03T16:03:13.934Z,70.85
2023-01-03T16:05:40.699Z,71.38
2023-01-03T16:08:25.339Z,71.61
2023-01-03T16:10:52.762Z,72.04
2023-01-03T16:13:21.013Z,71.90
2023-01-03T16:15:48.170Z,72.39
2023-01-03T16:18:17.831Z,72.08
2023-01-03T16:20:44.834Z,72.67
2023-01-03T16:23:29.423Z,72.82
2023-01-03T16:25:57.198Z,73.11
2023-01-03T16:28:25.339Z,73.70
2023-01-03T16:31:02.674Z,73.10
2023-01-03T16:33:36.634Z,73.60
2023-01-03T16:36:04.509Z,73.87
2023-01-03T16:38:33.473Z,73.85
2023-01-03T16:41:00.583Z,74.56
2023-01-03T16:43:27.912Z,74.67
2023-01-03T16:45:58.869Z,74.60
2023-01-03T16:48:29.185Z,75.28
2023-01-03T16:50:55.841Z,74.84
2023-01-03T16:53:52.214Z,74.73
2023-01-03T16:56:18.914Z,75.16
2023-01-03T16:58:45.512Z,74.82
2023-01-03T17:01:13.797Z,74.53
2023-01-03T17:03:42.226Z,74.66
2023-01-03T17:06:37.388Z,74.97
2023-01-03T17:09:12.590Z,74.83
2023-01-03T17:11:39.616Z,74.81
2023-01-03T17:14:06.520Z,74.93
2023-01-03T17:16:34.051Z,75.43
2023-01-03T17:19:00.727Z,75.18
2023-01-03T17:21:33.223Z,74.97
2023-01-03T17:24:08.283Z,75.09
2023-01-03T17:26:35.961Z,75.40
2023-01-03T17:29:06.017Z,75.08
2023-01-03T17:31:33.014Z,75.30
2023-01-03T17:34:00.212Z,75.65
2023-01-03T17:36:31.766Z,75.42
2023-01-03T17:39:02.987Z,75.20
2023-01-03T17:41:30.364Z,75.23
2023-01-03T17:43:56.936Z,75.18
2023-01-03T17:46:44.914Z,74.87
2023-01-03T17:49:25.645Z,74.90
2023-01-03T17:51:55.931Z,75.25
2023-01-03T17:54:28.873Z,75.03
2023-01-03T17:56:59.468Z,75.14
2023-01-03T17:59:27.030Z,75.04
2023-01-03T18:01:54.765Z,75.02
2023-01-03T18:04:38.262Z,75.69
2023-01-03T18:07:18.568Z,75.71
2023-01-03T18:09:45.186Z,75.76
2023-01-03T18:12:17.852Z,75.89
2023-01-03T18:14:45.648Z,75.64
2023-01-03T18:17:24.311Z,75.61
2023-01-03T18:19:50.890Z,75.84
2023-01-03T18:22:18.068Z,76.13
2023-01-03T18:24:44.769Z,75.86
2023-01-03T18:27:12.549Z,75.83
2023-01-03T18:29:39.417Z,75.89
2023-01-03T18:32:17.806Z,75.74
2023-01-03T18:34:44.347Z,75.59
2023-01-03T18:37:10.962Z,75.52
2023-01-03T18:39:37.582Z,75.53
2023-01-03T18:42:22.870Z,75.55
2023-01-03T18:44:49.623Z,75.94
2023-01-03T18:47:17.169Z,75.55
2023-01-03T18:49:43.762Z,75.40
2023-01-03T18:52:24.776Z,75.78
2023-01-03T18:54:52.420Z,75.82
2023-01-03T18:57:19.654Z,75.88
2023-01-03T18:59:46.527Z,75.93
2023-01-03T19:02:19.037Z,75.84
2023-01-03T19:04:51.114Z,76.09
2023-01-03T19:07:37.000Z,75.92
2023-01-03T19:10:07.929Z,76.11
2023-01-03T19:12:38.496Z,75.88
2023-01-03T19:15:21.860Z,76.12
2023-01-03T19:17:49.069Z,75.90
2023-01-03T19:20:16.097Z,76.19
2023-01-03T19:22:46.632Z,76.56
2023-01-03T19:25:20.047Z,76.31
2023-01-03T19:27:49.093Z,76.67
2023-01-03T19:30:24.187Z,76.78
2023-01-03T19:32:55.904Z,76.73
2023-01-03T19:35:23.507Z,77.05
2023-01-03T19:37:51.121Z,77.42
2023-01-03T19:40:21.342Z,77.22
2023-01-03T19:42:54.499Z,77.15
2023-01-03T19:45:37.486Z,77.23
2023-01-03T19:48:14.896Z,77.24
2023-01-03T19:50:41.594Z,77.39
2023-01-03T19:53:08.251Z,77.41
2023-01-03T19:55:39.081Z,77.87
2023-01-03T19:58:15.079Z,77.74
2023-01-03T20:00:41.764Z,77.77
2023-01-03T20:03:36.061Z,78.20
2023-01-03T20:06:02.934Z,78.19
2023-01-03T20:08:29.545Z,78.26
2023-01-03T20:10:56.980Z,78.50
2023-01-03T20:13:27.404Z,78.37
2023-01-03T20:15:57.437Z,78.74
2023-01-03T20:18:28.887Z,78.43
2023-01-03T20:20:58.958Z,78.93
2023-01-03T20:23:29.942Z,78.89
2023-01-03T20:25:56.501Z,78.93
2023-01-03T20:28:31.210Z,79.03
2023-01-03T20:30:59.212Z,79.01
2023-01-03T20:33:26.064Z,79.29
2023-01-03T20:36:11.199Z,79.44
2023-01-03T20:38:45.085Z,79.45
2023-01-03T20:41:14.539Z,79.46
2023-01-03T20:43:42.901Z,79.24
2023-01-03T20:46:17.394Z,78.67
2023-01-03T20:48:44.648Z,78.93
2023-01-03T20:51:13.836Z,79.17
2023-01-03T20:53:42.992Z,79.14
2023-01-03T20:56:12.998Z,79.19
2023-01-03T20:58:40.120Z,78.89
2023-01-03T21:01:10.354Z,79.25
2023-01-03T21:03:38.253Z,78.90
2023-01-03T21:06:19.618Z,78.39
2023-01-03T21:08:55.380Z,78.61
2023-01-03T21:11:35.107Z,78.65
2023-01-03T21:14:02.311Z,78.60
2023-01-03T21:16:36.623Z,78.95
2023-01-03T21:19:08.203Z,78.77
2023-01-03T21:21:35.105Z,79.03
2023-01-03T21:24:02.097Z,78.81
2023-01-03T21:26:28.726Z,79.38
2023-01-03T21:28:55.557Z,79.50
2023-01-03T21:31:23.119Z,79.63
2023-01-03T21:33:50.186Z,79.83
2023-01-03T21:36:28.763Z,80.07
2023-01-03T21:38:56.488Z,79.96
2023-01-03T21:41:31.854Z,80.47
2023-01-03T21:44:04.438Z,80.58
2023-01-03T21:46:31.441Z,80.46
2023-01-03T21:48:58.140Z,80.11
2023-01-03T21:51:35.441Z,80.38
2023-01-03T21:54:06.326Z,80.31
2023-01-03T21:56:32.936Z,81.07
2023-01-03T21:58:59.470Z,81.37
2023-01-03T22:01:26.213Z,81.17
2023-01-03T22:04:11.494Z,81.91
2023-01-03T22:06:38.446Z,81.55
2023-01-03T22:09:06.347Z,81.48
2023-01-03T22:11:33.001Z,81.88
2023-01-03T22:14:00.954Z,82.01
2023-01-03T22:16:27.811Z,82.25
2023-01-03T22:18:54.436Z,81.99
2023-01-03T22:21:21.337Z,82.31
2023-01-03T22:23:47.915Z,81.78
2023-01-03T22:26:16.290Z,82.00
2023-01-03T22:28:45.399Z,82.06
2023-01-03T22:31:16.533Z,82.00
2023-01-03T22:33:44.725Z,81.60
2023-01-03T22:36:11.843Z,81.83
2023-01-03T22:38:39.428Z,82.42
2023-01-03T22:41:13.585Z,82.26
2023-01-03T22:43:40.227Z,82.37
2023-01-03T22:46:09.171Z,81.88
2023-01-03T22:48:36.343Z,82.53
2023-01-03T22:51:09.302Z,82.14
2023-01-03T22:53:37.249Z,82.49
2023-01-03T22:56:06.445Z,82.67
2023-01-03T22:58:34.354Z,82.41
2023-01-03T23:01:09.439Z,82.68
2023-01-03T23:03:36.275Z,82.33
2023-01-03T23:06:07.399Z,82.42
2023-01-03T23:08:35.498Z,82.79
2023-01-03T23:11:34.857Z,82.60
2023-01-03T23:14:10.597Z,82.28
2023-01-03T23:16:38.147Z,81.92
2023-01-03T23:19:07.659Z,81.95
2023-01-03T23:21:35.224Z,81.78
2023-01-03T23:24:01.933Z,81.59
2023-01-03T23:26:28.705Z,81.92
2023-01-03T23:28:56.713Z,81.62
2023-01-03T23:31:23.584Z,81.50
2023-01-03T23:33:50.430Z,80.89
2023-01-03T23:36:17.603Z,81.25
2023-01-03T23:38:44.160Z,80.81
2023-01-03T23:41:10.764Z,81.02
2023-01-03T23:43:38.193Z,80.75
2023-01-03T23:46:06.137Z,80.60
2023-01-03T23:48:33.258Z,80.78
2023-01-03T23:51:05.060Z,80.61
2023-01-03T23:53:32.049Z,80.47
2023-01-03T23:55:59.000Z,80.14
2023-01-03T23:58:25.598Z,80.09
